sensor_id;sensor_type;location;lat;lon;timestamp;pressure;altitude;pressure_sealevel;temperature;humidity
6829;BME280;17930;48.592;8.868;2023-05-19T00:02:00;97188.41;;;12.22;100.00
6829;BME280;17930;48.592;8.868;2023-05-19T00:04:30;97188.97;;;12.19;100.00
6829;BME280;17930;48.592;8.868;2023-05-19T00:06:59;97190.25;;;12.26;100.00
6829;BME280;17930;48.592;8.868;2023-05-19T00:09:26;97184.47;;;12.24;100.00
6829;BME280;17930;48.592;8.868;2023-05-19T00:11:54;97192.88;;;12.21;100.00
6829;BME280;17930;48.592;8.868;2023-05-19T00:14:21;97182.69;;;12.20;100.00
6829;BME280;17930;48.592;8.868;2023-05-19T00:16:48;97189.97;;;12.23;100.00
6829;BME280;17930;48.592;8.868;2023-05-19T00:19:15;97183.44;;;12.25;100.00
6829;BME280;17930;48.592;8.868;2023-05-19T00:21:42;97192.03;;;12.30;100.00
6829;BME280;17930;48.592;8.868;2023-05-19T00:24:11;97181.50;;;12.40;100.00
6829;BME280;17930;48.592;8.868;2023-05-19T00:26:37;97186.19;;;12.43;100.00
6829;BME280;17930;48.592;8.868;2023-05-19T00:29:04;97189.38;;;12.35;100.00
6829;BME280;17930;48.592;8.868;2023-05-19T00:31:31;97187.72;;;12.49;100.00
6829;BME280;17930;48.592;8.868;2023-05-19T00:33:58;97188.41;;;12.27;100.00
6829;BME280;17930;48.592;8.868;2023-05-19T00:36:24;97186.41;;;12.09;100.00
6829;BME280;17930;48.592;8.868;2023-05-19T00:38:51;97193.03;;;11.96;100.00
6829;BME280;17930;48.592;8.868;2023-05-19T00:41:19;97179.25;;;11.76;100.00
6829;BME280;17930;48.592;8.868;2023-05-19T00:43:47;97174.06;;;11.66;100.00
6829;BME280;17930;48.592;8.868;2023-05-19T00:46:13;97171.72;;;11.65;100.00
6829;BME280;17930;48.592;8.868;2023-05-19T00:48:40;97176.69;;;11.61;100.00
6829;BME280;17930;48.592;8.868;2023-05-19T00:51:09;97177.72;;;11.65;100.00
6829;BME280;17930;48.592;8.868;2023-05-19T00:53:39;97167.78;;;11.67;100.00
6829;BME280;17930;48.592;8.868;2023-05-19T00:56:06;97170.13;;;11.64;100.00
6829;BME280;17930;48.592;8.868;2023-05-19T00:58:35;97171.44;;;11.71;100.00
6829;BME280;17930;48.592;8.868;2023-05-19T01:01:03;97175.13;;;11.60;100.00
6829;BME280;17930;48.592;8.868;2023-05-19T01:03:33;97171.50;;;11.51;100.00
6829;BME280;17930;48.592;8.868;2023-05-19T01:06:00;97168.63;;;11.53;100.00
6829;BME280;17930;48.592;8.868;2023-05-19T01:08:30;97173.59;;;11.49;100.00
6829;BME280;17930;48.592;8.868;2023-05-19T01:10:57;97170.47;;;11.37;100.00
6829;BME280;17930;48.592;8.868;2023-05-19T01:13:24;97170.25;;;11.29;100.00
6829;BME280;17930;48.592;8.868;2023-05-19T01:15:59;97181.22;;;11.21;100.00
6829;BME280;17930;48.592;8.868;2023-05-19T01:18:34;97173.66;;;11.24;100.00
6829;BME280;17930;48.592;8.868;2023-05-19T01:21:24;97178.06;;;11.29;100.00
6829;BME280;17930;48.592;8.868;2023-05-19T01:24:12;97173.66;;;11.20;100.00
6829;BME280;17930;48.592;8.868;2023-05-19T01:27:19;97173.41;;;11.16;100.00
6829;BME280;17930;48.592;8.868;2023-05-19T01:32:56;97183.03;;;11.25;100.00
6829;BME280;17930;48.592;8.868;2023-05-19T01:35:24;97181.47;;;11.24;100.00
6829;BME280;17930;48.592;8.868;2023-05-19T01:37:54;97183.03;;;11.25;100.00
6829;BME280;17930;48.592;8.868;2023-05-19T01:40:22;97176.78;;;11.22;100.00
6829;BME280;17930;48.592;8.868;2023-05-19T01:42:50;97174.44;;;11.30;100.00
6829;BME280;17930;48.592;8.868;2023-05-19T01:45:18;97178.09;;;11.14;100.00
6829;BME280;17930;48.592;8.868;2023-05-19T01:47:47;97170.03;;;11.01;100.00
6829;BME280;17930;48.592;8.868;2023-05-19T01:50:16;97178.66;;;11.06;100.00
6829;BME280;17930;48.592;8.868;2023-05-19T01:52:43;97177.84;;;11.11;100.00
6829;BME280;17930;48.592;8.868;2023-05-19T01:55:10;97172.06;;;11.19;100.00
6829;BME280;17930;48.592;8.868;2023-05-19T01:57:56;97173.66;;;11.20;100.00
6829;BME280;17930;48.592;8.868;2023-05-19T02:00:32;97167.13;;;11.22;100.00
6829;BME280;17930;48.592;8.868;2023-05-19T02:03:12;97168.94;;;11.17;100.00
6829;BME280;17930;48.592;8.868;2023-05-19T02:05:55;97171.06;;;11.15;100.00
6829;BME280;17930;48.592;8.868;2023-05-19T02:08:29;97171.59;;;11.02;100.00
6829;BME280;17930;48.592;8.868;2023-05-19T02:10:59;97173.69;;;10.95;100.00
6829;BME280;17930;48.592;8.868;2023-05-19T02:13:30;97174.47;;;10.90;100.00
6829;BME280;17930;48.592;8.868;2023-05-19T02:16:03;97178.66;;;10.86;100.00
6829;BME280;17930;48.592;8.868;2023-05-19T02:18:30;97177.84;;;10.96;100.00
6829;BME280;17930;48.592;8.868;2023-05-19T02:20:58;97176.56;;;10.98;100.00
6829;BME280;17930;48.592;8.868;2023-05-19T02:23:25;97187.00;;;10.88;100.00
6829;BME280;17930;48.592;8.868;2023-05-19T02:25:52;97181.00;;;10.83;100.00
6829;BME280;17930;48.592;8.868;2023-05-19T02:28:19;97177.88;;;10.76;100.00
6829;BME280;17930;48.592;8.868;2023-05-19T02:30:45;97171.38;;;10.83;100.00
6829;BME280;17930;48.592;8.868;2023-05-19T02:33:12;97176.84;;;10.77;100.00
6829;BME280;17930;48.592;8.868;2023-05-19T02:35:39;97171.38;;;10.73;100.00
6829;BME280;17930;48.592;8.868;2023-05-19T02:38:07;97176.34;;;10.65;100.00
6829;BME280;17930;48.592;8.868;2023-05-19T02:40:34;97169.78;;;10.68;100.00
6829;BME280;17930;48.592;8.868;2023-05-19T02:43:00;97172.16;;;10.74;100.00
6829;BME280;17930;48.592;8.868;2023-05-19T02:45:27;97171.09;;;10.70;100.00
6829;BME280;17930;48.592;8.868;2023-05-19T02:47:54;97171.63;;;10.67;100.00
6829;BME280;17930;48.592;8.868;2023-05-19T02:50:21;97164.31;;;10.64;100.00
6829;BME280;17930;48.592;8.868;2023-05-19T02:52:47;97166.66;;;10.66;100.00
6829;BME280;17930;48.592;8.868;2023-05-19T02:55:15;97158.06;;;10.65;100.00
6829;BME280;17930;48.592;8.868;2023-05-19T02:57:42;97160.16;;;10.68;100.00
6829;BME280;17930;48.592;8.868;2023-05-19T03:00:09;97160.16;;;10.68;100.00
6829;BME280;17930;48.592;8.868;2023-05-19T03:02:36;97155.72;;;10.69;100.00
6829;BME280;17930;48.592;8.868;2023-05-19T03:05:04;97159.34;;;10.68;100.00
6829;BME280;17930;48.592;8.868;2023-05-19T03:07:32;97160.16;;;10.68;100.00
6829;BME280;17930;48.592;8.868;2023-05-19T03:09:59;97161.44;;;10.75;100.00
6829;BME280;17930;48.592;8.868;2023-05-19T03:12:29;97157.53;;;10.73;100.00
6829;BME280;17930;48.592;8.868;2023-05-19T03:14:56;97157.53;;;10.73;100.00
6829;BME280;17930;48.592;8.868;2023-05-19T03:17:22;97166.41;;;10.77;100.00
6829;BME280;17930;48.592;8.868;2023-05-19T03:19:49;97155.97;;;10.82;100.00
6829;BME280;17930;48.592;8.868;2023-05-19T03:22:15;97163.25;;;10.80;100.00
6829;BME280;17930;48.592;8.868;2023-05-19T03:24:43;97155.47;;;10.65;100.00
6829;BME280;17930;48.592;8.868;2023-05-19T03:27:11;97160.13;;;10.73;100.00
6829;BME280;17930;48.592;8.868;2023-05-19T03:29:39;97162.25;;;10.71;100.00
6829;BME280;17930;48.592;8.868;2023-05-19T03:32:06;97155.47;;;10.65;100.00
6829;BME280;17930;48.592;8.868;2023-05-19T03:34:33;97164.81;;;10.76;100.00
6829;BME280;17930;48.592;8.868;2023-05-19T03:36:59;97162.75;;;10.73;100.00
6829;BME280;17930;48.592;8.868;2023-05-19T03:39:26;97161.69;;;10.69;100.00
6829;BME280;17930;48.592;8.868;2023-05-19T03:41:52;97166.41;;;10.62;100.00
6829;BME280;17930;48.592;8.868;2023-05-19T03:44:20;97164.84;;;10.56;100.00
6829;BME280;17930;48.592;8.868;2023-05-19T03:46:48;97169.53;;;10.64;100.00
6829;BME280;17930;48.592;8.868;2023-05-19T03:49:15;97169.00;;;10.67;100.00
6829;BME280;17930;48.592;8.868;2023-05-19T03:51:42;97171.88;;;10.56;100.00
6829;BME280;17930;48.592;8.868;2023-05-19T03:54:08;97168.78;;;10.54;100.00
6829;BME280;17930;48.592;8.868;2023-05-19T03:56:38;97167.72;;;10.50;100.00
6829;BME280;17930;48.592;8.868;2023-05-19T03:59:05;97177.34;;;10.49;100.00
6829;BME280;17930;48.592;8.868;2023-05-19T04:01:32;97176.84;;;10.47;100.00
6829;BME280;17930;48.592;8.868;2023-05-19T04:04:00;97176.31;;;10.45;100.00
6829;BME280;17930;48.592;8.868;2023-05-19T04:06:27;97177.34;;;10.49;100.00
6829;BME280;17930;48.592;8.868;2023-05-19T04:08:53;97165.09;;;10.55;100.00
6829;BME280;17930;48.592;8.868;2023-05-19T04:11:20;97166.41;;;10.62;100.00
6829;BME280;17930;48.592;8.868;2023-05-19T04:13:47;97169.53;;;10.74;100.00
6829;BME280;17930;48.592;8.868;2023-05-19T04:16:13;97173.97;;;10.69;100.00
6829;BME280;17930;48.592;8.868;2023-05-19T04:18:40;97175.78;;;10.83;100.00
6829;BME280;17930;48.592;8.868;2023-05-19T04:21:11;97171.59;;;11.02;100.00
6829;BME280;17930;48.592;8.868;2023-05-19T04:23:37;97170.28;;;11.04;100.00
6829;BME280;17930;48.592;8.868;2023-05-19T04:26:04;97167.44;;;11.01;100.00
6829;BME280;17930;48.592;8.868;2023-05-19T04:28:31;97161.41;;;11.10;100.00
6829;BME280;17930;48.592;8.868;2023-05-19T04:31:00;97166.38;;;11.12;100.00
6829;BME280;17930;48.592;8.868;2023-05-19T04:33:27;97168.97;;;11.12;100.00
6829;BME280;17930;48.592;8.868;2023-05-19T04:35:54;97165.31;;;11.13;100.00
6829;BME280;17930;48.592;8.868;2023-05-19T04:38:22;97167.91;;;11.13;100.00
6829;BME280;17930;48.592;8.868;2023-05-19T04:40:48;97167.41;;;11.11;100.00
6829;BME280;17930;48.592;8.868;2023-05-19T04:43:16;97164.78;;;11.11;100.00
6829;BME280;17930;48.592;8.868;2023-05-19T04:45:43;97163.75;;;11.22;100.00
6829;BME280;17930;48.592;8.868;2023-05-19T04:48:11;97172.34;;;11.22;100.00
6829;BME280;17930;48.592;8.868;2023-05-19T04:50:38;97174.94;;;11.17;100.00
6829;BME280;17930;48.592;8.868;2023-05-19T04:53:06;97170.78;;;11.21;100.00
6829;BME280;17930;48.592;8.868;2023-05-19T04:55:34;97174.69;;;11.23;100.00
6829;BME280;17930;48.592;8.868;2023-05-19T04:58:03;97174.69;;;11.23;100.00
6829;BME280;17930;48.592;8.868;2023-05-19T05:00:29;97172.03;;;11.28;100.00
6829;BME280;17930;48.592;8.868;2023-05-19T05:02:56;97167.88;;;11.32;100.00
6829;BME280;17930;48.592;8.868;2023-05-19T05:05:23;97163.69;;;11.36;100.00
6829;BME280;17930;48.592;8.868;2023-05-19T05:07:49;97164.72;;;11.50;100.00
6829;BME280;17930;48.592;8.868;2023-05-19T05:10:18;97161.06;;;11.41;100.00
6829;BME280;17930;48.592;8.868;2023-05-19T05:12:47;97162.66;;;11.32;100.00
6829;BME280;17930;48.592;8.868;2023-05-19T05:15:15;97161.56;;;11.38;100.00
6829;BME280;17930;48.592;8.868;2023-05-19T05:17:42;97166.31;;;11.31;100.00
6829;BME280;17930;48.592;8.868;2023-05-19T05:20:10;97166.78;;;11.38;100.00
6829;BME280;17930;48.592;8.868;2023-05-19T05:22:37;97167.84;;;11.52;100.00
6829;BME280;17930;48.592;8.868;2023-05-19T05:25:06;97157.88;;;11.59;100.00
6829;BME280;17930;48.592;8.868;2023-05-19T05:27:33;97158.09;;;11.73;100.00
6829;BME280;17930;48.592;8.868;2023-05-19T05:30:02;97169.09;;;11.65;100.00
6829;BME280;17930;48.592;8.868;2023-05-19T05:32:29;97169.81;;;11.80;100.00
6829;BME280;17930;48.592;8.868;2023-05-19T05:34:56;97165.31;;;11.90;100.00
6829;BME280;17930;48.592;8.868;2023-05-19T05:37:22;97167.31;;;12.08;100.00
6829;BME280;17930;48.592;8.868;2023-05-19T05:39:49;97166.50;;;12.13;100.00
6829;BME280;17930;48.592;8.868;2023-05-19T05:42:16;97169.63;;;12.15;100.00
6829;BME280;17930;48.592;8.868;2023-05-19T05:44:42;97179.41;;;11.99;100.00
6829;BME280;17930;48.592;8.868;2023-05-19T05:47:11;97176.47;;;12.06;100.00
6829;BME280;17930;48.592;8.868;2023-05-19T05:49:38;97184.28;;;12.16;100.00
6829;BME280;17930;48.592;8.868;2023-05-19T05:52:08;97172.66;;;12.31;100.00
6829;BME280;17930;48.592;8.868;2023-05-19T05:54:36;97178.50;;;12.19;100.00
6829;BME280;17930;48.592;8.868;2023-05-19T05:57:04;97183.66;;;12.28;100.00
6829;BME280;17930;48.592;8.868;2023-05-19T05:59:31;97178.97;;;12.26;100.00
6829;BME280;17930;48.592;8.868;2023-05-19T06:01:58;97183.81;;;12.47;100.00
6829;BME280;17930;48.592;8.868;2023-05-19T06:04:26;97184.09;;;12.45;100.00
6829;BME280;17930;48.592;8.868;2023-05-19T06:06:52;97179.44;;;12.71;100.00
6829;BME280;17930;48.592;8.868;2023-05-19T06:09:25;97174.41;;;12.79;100.00
6829;BME280;17930;48.592;8.868;2023-05-19T06:11:51;97171.53;;;13.09;100.00
6829;BME280;17930;48.592;8.868;2023-05-19T06:14:18;97169.00;;;13.74;100.00
6829;BME280;17930;48.592;8.868;2023-05-19T06:16:45;97166.75;;;14.04;100.00
6829;BME280;17930;48.592;8.868;2023-05-19T06:19:12;97168.09;;;14.25;100.00
6829;BME280;17930;48.592;8.868;2023-05-19T06:21:40;97168.59;;;14.45;100.00
6829;BME280;17930;48.592;8.868;2023-05-19T06:24:07;97162.03;;;14.61;100.00
6829;BME280;17930;48.592;8.868;2023-05-19T06:26:34;97167.66;;;14.18;100.00
6829;BME280;17930;48.592;8.868;2023-05-19T06:29:01;97162.84;;;14.25;100.00
6829;BME280;17930;48.592;8.868;2023-05-19T06:31:28;97163.47;;;14.35;100.00
6829;BME280;17930;48.592;8.868;2023-05-19T06:33:55;97170.38;;;14.49;100.00
6829;BME280;17930;48.592;8.868;2023-05-19T06:36:22;97159.63;;;14.64;100.00
6829;BME280;17930;48.592;8.868;2023-05-19T06:38:50;97166.13;;;14.17;100.00
6829;BME280;17930;48.592;8.868;2023-05-19T06:41:17;97159.59;;;14.33;100.00
6829;BME280;17930;48.592;8.868;2023-05-19T06:43:43;97160.91;;;14.67;100.00
6829;BME280;17930;48.592;8.868;2023-05-19T06:46:10;97162.19;;;14.69;100.00
6829;BME280;17930;48.592;8.868;2023-05-19T06:48:37;97157.88;;;15.05;100.00
6829;BME280;17930;48.592;8.868;2023-05-19T06:51:04;97156.50;;;15.26;100.00
6829;BME280;17930;48.592;8.868;2023-05-19T06:53:32;97153.09;;;15.38;100.00
6829;BME280;17930;48.592;8.868;2023-05-19T06:56:00;97163.03;;;15.55;100.00
6829;BME280;17930;48.592;8.868;2023-05-19T06:58:27;97160.78;;;15.75;100.00
6829;BME280;17930;48.592;8.868;2023-05-19T07:00:54;97168.50;;;15.58;100.00
6829;BME280;17930;48.592;8.868;2023-05-19T07:03:21;97161.56;;;15.89;100.00
6829;BME280;17930;48.592;8.868;2023-05-19T07:05:47;97164.97;;;15.76;100.00
6829;BME280;17930;48.592;8.868;2023-05-19T07:08:14;97170.19;;;16.03;100.00
6829;BME280;17930;48.592;8.868;2023-05-19T07:10:41;97163.66;;;16.27;100.00
6829;BME280;17930;48.592;8.868;2023-05-19T07:13:09;97169.88;;;16.18;100.00
6829;BME280;17930;48.592;8.868;2023-05-19T07:15:35;97154.75;;;16.37;100.00
6829;BME280;17930;48.592;8.868;2023-05-19T07:18:02;97149.84;;;16.43;100.00
6829;BME280;17930;48.592;8.868;2023-05-19T07:20:29;97155.84;;;16.57;100.00
6829;BME280;17930;48.592;8.868;2023-05-19T07:22:56;97157.69;;;16.22;100.00
6829;BME280;17930;48.592;8.868;2023-05-19T07:25:22;97163.22;;;15.85;100.00
6829;BME280;17930;48.592;8.868;2023-05-19T07:27:50;97155.41;;;15.93;100.00
6829;BME280;17930;48.592;8.868;2023-05-19T07:30:18;97153.72;;;16.11;100.00
6829;BME280;17930;48.592;8.868;2023-05-19T07:32:45;97155.66;;;16.54;100.00
6829;BME280;17930;48.592;8.868;2023-05-19T07:35:11;97157.50;;;16.53;100.00
6829;BME280;17930;48.592;8.868;2023-05-19T07:37:38;97166.09;;;16.24;100.00
6829;BME280;17930;48.592;8.868;2023-05-19T07:40:06;97158.44;;;16.36;100.00
6829;BME280;17930;48.592;8.868;2023-05-19T07:42:33;97157.06;;;16.38;100.00
6829;BME280;17930;48.592;8.868;2023-05-19T07:45:00;97158.91;;;16.73;100.00
6829;BME280;17930;48.592;8.868;2023-05-19T07:47:29;97162.97;;;16.22;100.00
6829;BME280;17930;48.592;8.868;2023-05-19T07:49:56;97161.09;;;15.74;100.00
6829;BME280;17930;48.592;8.868;2023-05-19T07:52:22;97153.00;;;15.57;100.00
6829;BME280;17930;48.592;8.868;2023-05-19T07:54:49;97152.41;;;15.33;100.00
6829;BME280;17930;48.592;8.868;2023-05-19T07:57:16;97158.16;;;15.35;100.00
6829;BME280;17930;48.592;8.868;2023-05-19T07:59:43;97153.50;;;15.45;100.00
6829;BME280;17930;48.592;8.868;2023-05-19T08:02:10;97147.16;;;15.46;100.00
6829;BME280;17930;48.592;8.868;2023-05-19T08:04:37;97152.31;;;15.51;100.00
6829;BME280;17930;48.592;8.868;2023-05-19T08:07:04;97150.66;;;15.55;100.00
6829;BME280;17930;48.592;8.868;2023-05-19T08:09:31;97150.34;;;15.43;100.00
6829;BME280;17930;48.592;8.868;2023-05-19T08:11:57;97147.84;;;15.65;100.00
6829;BME280;17930;48.592;8.868;2023-05-19T08:14:25;97142.97;;;15.45;100.00
6829;BME280;17930;48.592;8.868;2023-05-19T08:16:52;97140.59;;;15.17;100.00
6829;BME280;17930;48.592;8.868;2023-05-19T08:19:19;97141.00;;;15.38;100.00
6829;BME280;17930;48.592;8.868;2023-05-19T08:21:47;97138.47;;;15.59;100.00
6829;BME280;17930;48.592;8.868;2023-05-19T08:24:14;97131.16;;;15.83;100.00
6829;BME280;17930;48.592;8.868;2023-05-19T08:26:40;97142.41;;;16.45;100.00
6829;BME280;17930;48.592;8.868;2023-05-19T08:29:09;97122.88;;;17.50;100.00
6829;BME280;17930;48.592;8.868;2023-05-19T08:31:35;97131.47;;;17.26;100.00
6829;BME280;17930;48.592;8.868;2023-05-19T08:34:02;97122.66;;;17.39;100.00
6829;BME280;17930;48.592;8.868;2023-05-19T08:36:28;97119.81;;;17.65;100.00
6829;BME280;17930;48.592;8.868;2023-05-19T08:38:56;97121.19;;;18.60;100.00
6829;BME280;17930;48.592;8.868;2023-05-19T08:41:23;97114.19;;;19.27;100.00
6829;BME280;17930;48.592;8.868;2023-05-19T08:43:50;97106.34;;;19.39;100.00
6829;BME280;17930;48.592;8.868;2023-05-19T08:46:19;97110.38;;;19.45;100.00
6829;BME280;17930;48.592;8.868;2023-05-19T08:48:47;97104.63;;;18.97;100.00
6829;BME280;17930;48.592;8.868;2023-05-19T08:51:19;97114.56;;;19.00;100.00
6829;BME280;17930;48.592;8.868;2023-05-19T08:53:50;97116.03;;;18.47;100.00
6829;BME280;17930;48.592;8.868;2023-05-19T08:56:20;97116.84;;;18.48;100.00
6829;BME280;17930;48.592;8.868;2023-05-19T08:58:49;97107.03;;;18.48;100.00
6829;BME280;17930;48.592;8.868;2023-05-19T09:01:16;97101.28;;;18.12;100.00
6829;BME280;17930;48.592;8.868;2023-05-19T09:03:44;97102.69;;;18.18;100.00
6829;BME280;17930;48.592;8.868;2023-05-19T09:06:11;97105.97;;;18.15;100.00
6829;BME280;17930;48.592;8.868;2023-05-19T09:08:39;97111.25;;;18.15;100.00
6829;BME280;17930;48.592;8.868;2023-05-19T09:11:06;97102.84;;;18.39;100.00
6829;BME280;17930;48.592;8.868;2023-05-19T09:13:34;97103.94;;;18.29;100.00
6829;BME280;17930;48.592;8.868;2023-05-19T09:16:02;97114.31;;;18.09;100.00
6829;BME280;17930;48.592;8.868;2023-05-19T09:18:29;97110.31;;;18.20;100.00
6829;BME280;17930;48.592;8.868;2023-05-19T09:20:58;97108.28;;;18.50;100.00
6829;BME280;17930;48.592;8.868;2023-05-19T09:23:26;97107.22;;;18.18;100.00
6829;BME280;17930;48.592;8.868;2023-05-19T09:25:55;97107.59;;;17.86;100.00
6829;BME280;17930;48.592;8.868;2023-05-19T09:28:22;97111.16;;;17.73;100.00
6829;BME280;17930;48.592;8.868;2023-05-19T09:30:57;97111.22;;;17.13;100.00
6829;BME280;17930;48.592;8.868;2023-05-19T09:33:24;97113.66;;;17.01;100.00
6829;BME280;17930;48.592;8.868;2023-05-19T09:35:52;97109.34;;;17.05;100.00
6829;BME280;17930;48.592;8.868;2023-05-19T09:38:19;97106.66;;;16.96;100.00
6829;BME280;17930;48.592;8.868;2023-05-19T09:40:47;97100.78;;;17.30;100.00
6829;BME280;17930;48.592;8.868;2023-05-19T09:43:14;97104.22;;;17.39;100.00
6829;BME280;17930;48.592;8.868;2023-05-19T09:45:40;97109.34;;;17.44;100.00
6829;BME280;17930;48.592;8.868;2023-05-19T09:48:09;97104.13;;;17.60;100.00
6829;BME280;17930;48.592;8.868;2023-05-19T09:50:36;97103.22;;;17.65;100.00
6829;BME280;17930;48.592;8.868;2023-05-19T09:53:02;97111.25;;;17.51;100.00
6829;BME280;17930;48.592;8.868;2023-05-19T09:55:29;97107.06;;;17.50;100.00
6829;BME280;17930;48.592;8.868;2023-05-19T09:57:57;97101.84;;;17.29;100.00
6829;BME280;17930;48.592;8.868;2023-05-19T10:00:25;97095.94;;;17.70;100.00
6829;BME280;17930;48.592;8.868;2023-05-19T10:02:53;97101.81;;;17.67;100.00
6829;BME280;17930;48.592;8.868;2023-05-19T10:05:23;97099.34;;;17.79;100.00
6829;BME280;17930;48.592;8.868;2023-05-19T10:07:51;97101.34;;;17.65;100.00
6829;BME280;17930;48.592;8.868;2023-05-19T10:10:19;97098.06;;;17.51;100.00
6829;BME280;17930;48.592;8.868;2023-05-19T10:12:47;97105.34;;;17.46;100.00
6829;BME280;17930;48.592;8.868;2023-05-19T10:15:15;97103.00;;;17.14;100.00
6829;BME280;17930;48.592;8.868;2023-05-19T10:17:43;97091.59;;;17.27;100.00
6829;BME280;17930;48.592;8.868;2023-05-19T10:20:11;97094.03;;;17.15;100.00
6829;BME280;17930;48.592;8.868;2023-05-19T10:22:40;97099.59;;;17.14;100.00
6829;BME280;17930;48.592;8.868;2023-05-19T10:25:08;97101.00;;;17.20;100.00
6829;BME280;17930;48.592;8.868;2023-05-19T10:27:37;97096.16;;;17.05;100.00
6829;BME280;17930;48.592;8.868;2023-05-19T10:30:09;97096.41;;;16.43;100.00
6829;BME280;17930;48.592;8.868;2023-05-19T10:32:40;97094.84;;;16.94;100.00
6829;BME280;17930;48.592;8.868;2023-05-19T10:38:18;97098.50;;;16.54;100.00
6829;BME280;17930;48.592;8.868;2023-05-19T10:40:52;97099.81;;;16.43;100.00
6829;BME280;17930;48.592;8.868;2023-05-19T10:43:36;97104.09;;;16.40;100.00
6829;BME280;17930;48.592;8.868;2023-05-19T10:46:04;97112.84;;;16.27;100.00
6829;BME280;17930;48.592;8.868;2023-05-19T10:48:32;97103.88;;;16.28;100.00
6829;BME280;17930;48.592;8.868;2023-05-19T10:50:59;97103.00;;;16.19;100.00
6829;BME280;17930;48.592;8.868;2023-05-19T10:53:30;97098.59;;;16.49;100.00
6829;BME280;17930;48.592;8.868;2023-05-19T10:56:00;97110.72;;;16.29;100.00
6829;BME280;17930;48.592;8.868;2023-05-19T10:58:50;97112.28;;;16.03;100.00
6829;BME280;17930;48.592;8.868;2023-05-19T11:01:18;97109.50;;;15.86;100.00
6829;BME280;17930;48.592;8.868;2023-05-19T11:03:47;97110.69;;;15.80;100.00
6829;BME280;17930;48.592;8.868;2023-05-19T11:06:23;97102.53;;;15.68;100.00
6829;BME280;17930;48.592;8.868;2023-05-19T11:08:57;97106.53;;;15.79;100.00
6829;BME280;17930;48.592;8.868;2023-05-19T11:11:25;97111.19;;;15.82;100.00
6829;BME280;17930;48.592;8.868;2023-05-19T11:13:53;97108.44;;;15.87;100.00
6829;BME280;17930;48.592;8.868;2023-05-19T11:16:26;97109.34;;;15.83;100.00
6829;BME280;17930;48.592;8.868;2023-05-19T11:18:54;97103.44;;;15.64;100.00
6829;BME280;17930;48.592;8.868;2023-05-19T11:21:20;97112.69;;;15.61;100.00
6829;BME280;17930;48.592;8.868;2023-05-19T11:23:48;97111.69;;;15.57;100.00
6829;BME280;17930;48.592;8.868;2023-05-19T11:26:40;97105.19;;;15.41;100.00
6829;BME280;17930;48.592;8.868;2023-05-19T11:29:08;97106.31;;;15.76;100.00
6829;BME280;17930;48.592;8.868;2023-05-19T11:31:35;97110.00;;;15.75;100.00
6829;BME280;17930;48.592;8.868;2023-05-19T11:34:03;97101.41;;;15.96;100.00
6829;BME280;17930;48.592;8.868;2023-05-19T11:36:32;97104.34;;;16.30;100.00
6829;BME280;17930;48.592;8.868;2023-05-19T11:39:00;97106.28;;;16.38;100.00
6829;BME280;17930;48.592;8.868;2023-05-19T11:41:27;97097.25;;;16.17;100.00
6829;BME280;17930;48.592;8.868;2023-05-19T11:43:56;97094.72;;;16.25;100.00
6829;BME280;17930;48.592;8.868;2023-05-19T11:46:23;97099.50;;;16.45;100.00
6829;BME280;17930;48.592;8.868;2023-05-19T11:48:52;97093.34;;;16.71;100.00
6829;BME280;17930;48.592;8.868;2023-05-19T11:51:20;97098.09;;;16.91;100.00
6829;BME280;17930;48.592;8.868;2023-05-19T11:53:48;97095.16;;;16.92;100.00
6829;BME280;17930;48.592;8.868;2023-05-19T11:56:15;97091.75;;;17.22;100.00
6829;BME280;17930;48.592;8.868;2023-05-19T11:58:41;97093.19;;;17.37;100.00
6829;BME280;17930;48.592;8.868;2023-05-19T12:01:09;97093.84;;;17.42;100.00
6829;BME280;17930;48.592;8.868;2023-05-19T12:03:36;97096.34;;;17.17;100.00
6829;BME280;17930;48.592;8.868;2023-05-19T12:06:03;97087.72;;;16.94;100.00
6829;BME280;17930;48.592;8.868;2023-05-19T12:08:34;97087.97;;;17.15;100.00
6829;BME280;17930;48.592;8.868;2023-05-19T12:11:00;97090.13;;;17.43;100.00
6829;BME280;17930;48.592;8.868;2023-05-19T12:13:27;97099.59;;;17.52;100.00
6829;BME280;17930;48.592;8.868;2023-05-19T12:15:58;97093.84;;;17.42;100.00
6829;BME280;17930;48.592;8.868;2023-05-19T12:18:28;97093.16;;;17.28;100.00
6829;BME280;17930;48.592;8.868;2023-05-19T12:20:56;97105.28;;;17.29;100.00
6829;BME280;17930;48.592;8.868;2023-05-19T12:23:22;97097.13;;;16.87;100.00
6829;BME280;17930;48.592;8.868;2023-05-19T12:25:50;97093.53;;;17.05;100.00
6829;BME280;17930;48.592;8.868;2023-05-19T12:28:18;97098.41;;;16.90;100.00
6829;BME280;17930;48.592;8.868;2023-05-19T12:30:46;97094.44;;;17.09;100.00
6829;BME280;17930;48.592;8.868;2023-05-19T12:33:13;97100.81;;;17.38;100.00
6829;BME280;17930;48.592;8.868;2023-05-19T12:35:42;97098.81;;;17.44;100.00
6829;BME280;17930;48.592;8.868;2023-05-19T12:38:08;97100.31;;;18.00;100.00
6829;BME280;17930;48.592;8.868;2023-05-19T12:40:36;97100.78;;;18.10;100.00
6829;BME280;17930;48.592;8.868;2023-05-19T12:43:04;97096.72;;;17.88;100.00
6829;BME280;17930;48.592;8.868;2023-05-19T12:45:33;97101.22;;;17.23;100.00
6829;BME280;17930;48.592;8.868;2023-05-19T12:48:02;97108.63;;;16.91;100.00
6829;BME280;17930;48.592;8.868;2023-05-19T12:50:29;97107.00;;;17.12;100.00
6829;BME280;17930;48.592;8.868;2023-05-19T12:52:57;97103.72;;;16.98;100.00
6829;BME280;17930;48.592;8.868;2023-05-19T12:55:24;97105.41;;;16.94;100.00
6829;BME280;17930;48.592;8.868;2023-05-19T12:57:51;97116.91;;;16.76;100.00
6829;BME280;17930;48.592;8.868;2023-05-19T13:00:21;97116.78;;;16.59;100.00
6829;BME280;17930;48.592;8.868;2023-05-19T13:02:57;97113.69;;;16.57;100.00
6829;BME280;17930;48.592;8.868;2023-05-19T13:05:25;97109.63;;;16.51;100.00
6829;BME280;17930;48.592;8.868;2023-05-19T13:07:53;97102.97;;;16.76;100.00
6829;BME280;17930;48.592;8.868;2023-05-19T13:10:22;97102.56;;;16.91;100.00
6829;BME280;17930;48.592;8.868;2023-05-19T13:12:50;97096.00;;;17.10;100.00